Aviation Digital Data Service (ADDS)

Output produced by METARs form (0451 UTC 20 April 2018)
found at http://aviationweather.gov/adds/metars/
 
METAR text: KGYY 200435Z AUTO 29003KT 10SM CLR 01/M03 A3044 RMK AO2 T00071026
Conditions at: KGYY (GARY REGIONAL , IN, US) observed 0435 UTC 20 April 2018
Temperature: 0.7°C (33°F)
Dewpoint: -2.6°C (27°F) [RH = 79%]
Pressure (altimeter): 30.44 inches Hg (1030.9 mb)
Winds: from the WNW (290 degrees) at 3 MPH (3 knots; 1.6 m/s)
Visibility: 10 or more miles (16+ km)
Ceiling: at least 12,000 feet AGL
Clouds: sky clear below 12,000 feet AGL
Weather: automated observation with no human augmentation;
there may or may not be significant weather present at this time

METAR text: KGYY 200415Z AUTO 29006KT 10SM CLR 01/M01 A3043 RMK AO2 T00131013
Conditions at: KGYY (GARY REGIONAL , IN, US) observed 0415 UTC 20 April 2018
Temperature: 1.3°C (34°F)
Dewpoint: -1.3°C (30°F) [RH = 83%]
Pressure (altimeter): 30.43 inches Hg (1030.6 mb)
Winds: from the WNW (290 degrees) at 7 MPH (6 knots; 3.1 m/s)
Visibility: 10 or more miles (16+ km)
Ceiling: at least 12,000 feet AGL
Clouds: sky clear below 12,000 feet AGL
Weather: automated observation with no human augmentation;
there may or may not be significant weather present at this time

METAR text: KGYY 200355Z AUTO 00000KT 10SM CLR 02/M02 A3043 RMK AO2 T00151021
Conditions at: KGYY (GARY REGIONAL , IN, US) observed 0355 UTC 20 April 2018
Temperature: 1.5°C (35°F)
Dewpoint: -2.1°C (28°F) [RH = 77%]
Pressure (altimeter): 30.43 inches Hg (1030.6 mb)
Winds: calm
Visibility: 10 or more miles (16+ km)
Ceiling: at least 12,000 feet AGL
Clouds: sky clear below 12,000 feet AGL
Weather: automated observation with no human augmentation;
there may or may not be significant weather present at this time

METAR text: KGYY 200335Z AUTO 28004KT 10SM CLR 02/M02 A3043 RMK AO2 T00181017
Conditions at: KGYY (GARY REGIONAL , IN, US) observed 0335 UTC 20 April 2018
Temperature: 1.8°C (35°F)
Dewpoint: -1.7°C (29°F) [RH = 78%]
Pressure (altimeter): 30.43 inches Hg (1030.6 mb)
Winds: from the W (280 degrees) at 5 MPH (4 knots; 2.1 m/s)
Visibility: 10 or more miles (16+ km)
Ceiling: at least 12,000 feet AGL
Clouds: sky clear below 12,000 feet AGL
Weather: automated observation with no human augmentation;
there may or may not be significant weather present at this time

METAR text: KGYY 200315Z AUTO 30004KT 10SM CLR 02/M01 A3042 RMK AO2 T00171014
Conditions at: KGYY (GARY REGIONAL , IN, US) observed 0315 UTC 20 April 2018
Temperature: 1.7°C (35°F)
Dewpoint: -1.4°C (29°F) [RH = 80%]
Pressure (altimeter): 30.42 inches Hg (1030.2 mb)
Winds: from the WNW (300 degrees) at 5 MPH (4 knots; 2.1 m/s)
Visibility: 10 or more miles (16+ km)
Ceiling: at least 12,000 feet AGL
Clouds: sky clear below 12,000 feet AGL
Weather: automated observation with no human augmentation;
there may or may not be significant weather present at this time

METAR text: KGYY 200245Z 30004KT 10SM SKC 01/M01 A3043
Conditions at: KGYY (GARY REGIONAL , IN, US) observed 0245 UTC 20 April 2018
Temperature: 1.0°C (34°F)
Dewpoint: -1.0°C (30°F) [RH = 86%]
Pressure (altimeter): 30.43 inches Hg (1030.6 mb)
Winds: from the WNW (300 degrees) at 5 MPH (4 knots; 2.1 m/s)
Visibility: 10 or more miles (16+ km)
Ceiling: at least 12,000 feet AGL
Clouds: clear skies
Weather: no significant weather observed at this time

METAR text: KGYY 200145Z 02006KT 10SM SKC 04/M01 A3043
Conditions at: KGYY (GARY REGIONAL , IN, US) observed 0145 UTC 20 April 2018
Temperature: 4.0°C (39°F)
Dewpoint: -1.0°C (30°F) [RH = 70%]
Pressure (altimeter): 30.43 inches Hg (1030.6 mb)
Winds: from the NNE (20 degrees) at 7 MPH (6 knots; 3.1 m/s)
Visibility: 10 or more miles (16+ km)
Ceiling: at least 12,000 feet AGL
Clouds: clear skies
Weather: no significant weather observed at this time

METAR text: KGYY 200045Z 03004KT 10SM SKC 04/M02 A3042
Conditions at: KGYY (GARY REGIONAL , IN, US) observed 0045 UTC 20 April 2018
Temperature: 4.0°C (39°F)
Dewpoint: -2.0°C (28°F) [RH = 65%]
Pressure (altimeter): 30.42 inches Hg (1030.2 mb)
Winds: from the NNE (30 degrees) at 5 MPH (4 knots; 2.1 m/s)
Visibility: 10 or more miles (16+ km)
Ceiling: at least 12,000 feet AGL
Clouds: clear skies
Weather: no significant weather observed at this time

METAR text: KGYY 192345Z 02004KT 10SM SKC 06/M03 A3042
Conditions at: KGYY (GARY REGIONAL , IN, US) observed 2345 UTC 19 April 2018
Temperature: 6.0°C (43°F)
Dewpoint: -3.0°C (27°F) [RH = 52%]
Pressure (altimeter): 30.42 inches Hg (1030.2 mb)
Winds: from the NNE (20 degrees) at 5 MPH (4 knots; 2.1 m/s)
Visibility: 10 or more miles (16+ km)
Ceiling: at least 12,000 feet AGL
Clouds: clear skies
Weather: no significant weather observed at this time

METAR text: KGYY 192245Z 02009KT 10SM SKC 07/M04 A3041
Conditions at: KGYY (GARY REGIONAL , IN, US) observed 2245 UTC 19 April 2018
Temperature: 7.0°C (45°F)
Dewpoint: -4.0°C (25°F) [RH = 45%]
Pressure (altimeter): 30.41 inches Hg (1029.9 mb)
Winds: from the NNE (20 degrees) at 10 MPH (9 knots; 4.7 m/s)
Visibility: 10 or more miles (16+ km)
Ceiling: at least 12,000 feet AGL
Clouds: clear skies
Weather: no significant weather observed at this time

METAR text: KGYY 192145Z 02011KT 10SM SKC 07/M06 A3041
Conditions at: KGYY (GARY REGIONAL , IN, US) observed 2145 UTC 19 April 2018
Temperature: 7.0°C (45°F)
Dewpoint: -6.0°C (21°F) [RH = 39%]
Pressure (altimeter): 30.41 inches Hg (1029.9 mb)
Winds: from the NNE (20 degrees) at 13 MPH (11 knots; 5.7 m/s)
Visibility: 10 or more miles (16+ km)
Ceiling: at least 12,000 feet AGL
Clouds: clear skies
Weather: no significant weather observed at this time

METAR text: KGYY 192045Z 36012KT 10SM FEW250 07/M07 A3041
Conditions at: KGYY (GARY REGIONAL , IN, US) observed 2045 UTC 19 April 2018
Temperature: 7.0°C (45°F)
Dewpoint: -7.0°C (19°F) [RH = 36%]
Pressure (altimeter): 30.41 inches Hg (1029.9 mb)
Winds: from the N (360 degrees) at 14 MPH (12 knots; 6.2 m/s)
Visibility: 10 or more miles (16+ km)
Ceiling: at least 12,000 feet AGL
Clouds: few clouds at 25000 feet AGL
Weather: no significant weather observed at this time

METAR text: KGYY 191945Z 36012KT 15SM FEW250 078/M03 A3040
Conditions at: KGYY (GARY REGIONAL , IN, US) observed 1945 UTC 19 April 2018
Temperature: 0.0°C (32°F)
Dewpoint: -3.0°C (27°F) [RH = 80%]
Pressure (altimeter): 30.40 inches Hg (1029.5 mb)
Winds: from the N (360 degrees) at 14 MPH (12 knots; 6.2 m/s)
Visibility: 15 miles (24 km)
Ceiling: at least 12,000 feet AGL
Clouds: few clouds at 25000 feet AGL
Weather: no significant weather observed at this time

METAR text: KGYY 191845Z 32012KT 15SM SCT250 07/M01 A3036
Conditions at: KGYY (GARY REGIONAL , IN, US) observed 1845 UTC 19 April 2018
Temperature: 7.0°C (45°F)
Dewpoint: -1.0°C (30°F) [RH = 57%]
Pressure (altimeter): 30.36 inches Hg (1028.2 mb)
Winds: from the NW (320 degrees) at 14 MPH (12 knots; 6.2 m/s)
Visibility: 15 miles (24 km)
Ceiling: at least 12,000 feet AGL
Clouds: scattered clouds at 25000 feet AGL
Weather: no significant weather observed at this time

METAR text: KGYY 191645Z 33012KT 15SM SCT250 07/M01 A3035
Conditions at: KGYY (GARY REGIONAL , IN, US) observed 1645 UTC 19 April 2018
Temperature: 7.0°C (45°F)
Dewpoint: -1.0°C (30°F) [RH = 57%]
Pressure (altimeter): 30.35 inches Hg (1027.9 mb)
Winds: from the NNW (330 degrees) at 14 MPH (12 knots; 6.2 m/s)
Visibility: 15 miles (24 km)
Ceiling: at least 12,000 feet AGL
Clouds: scattered clouds at 25000 feet AGL
Weather: no significant weather observed at this time

METAR text: KGYY 191545Z 33010G20KT 20SM FEW012 FEW250 06/00 A3030
Conditions at: KGYY (GARY REGIONAL , IN, US) observed 1545 UTC 19 April 2018
Temperature: 6.0°C (43°F)
Dewpoint: 0.0°C (32°F) [RH = 65%]
Pressure (altimeter): 30.30 inches Hg (1026.2 mb)
Winds: from the NNW (330 degrees) at 12 MPH (10 knots; 5.2 m/s)
gusting to 23 MPH (20 knots; 10.4 m/s)
Visibility: 20 miles (32 km)
Ceiling: at least 12,000 feet AGL
Clouds: few clouds at 1200 feet AGL
few clouds at 25000 feet AGL
Weather: no significant weather observed at this time

METAR text: KGYY 191445Z 34020KT 20SM FEW012 FEW250 05/01 A3030
Conditions at: KGYY (GARY REGIONAL , IN, US) observed 1445 UTC 19 April 2018
Temperature: 5.0°C (41°F)
Dewpoint: 1.0°C (34°F) [RH = 75%]
Pressure (altimeter): 30.30 inches Hg (1026.2 mb)
Winds: from the NNW (340 degrees) at 23 MPH (20 knots; 10.4 m/s)
Visibility: 20 miles (32 km)
Ceiling: at least 12,000 feet AGL
Clouds: few clouds at 1200 feet AGL
few clouds at 25000 feet AGL
Weather: no significant weather observed at this time

METAR text: KGYY 191345Z 33010G25KT 20SM FEW012 05/01 A3027
Conditions at: KGYY (GARY REGIONAL , IN, US) observed 1345 UTC 19 April 2018
Temperature: 5.0°C (41°F)
Dewpoint: 1.0°C (34°F) [RH = 75%]
Pressure (altimeter): 30.27 inches Hg (1025.1 mb)
Winds: from the NNW (330 degrees) at 12 MPH (10 knots; 5.2 m/s)
gusting to 29 MPH (25 knots; 13.0 m/s)
Visibility: 20 miles (32 km)
Ceiling: at least 12,000 feet AGL
Clouds: few clouds at 1200 feet AGL
Weather: no significant weather observed at this time

METAR text: KGYY 191245Z 34019KT 20SM FEW011 04/01 A3022
Conditions at: KGYY (GARY REGIONAL , IN, US) observed 1245 UTC 19 April 2018
Temperature: 4.0°C (39°F)
Dewpoint: 1.0°C (34°F) [RH = 81%]
Pressure (altimeter): 30.22 inches Hg (1023.5 mb)
Winds: from the NNW (340 degrees) at 22 MPH (19 knots; 9.9 m/s)
Visibility: 20 miles (32 km)
Ceiling: at least 12,000 feet AGL
Clouds: few clouds at 1100 feet AGL
Weather: no significant weather observed at this time

METAR text: KGYY 191145Z 35015KT 20SM FEW010 03/01 A3018
Conditions at: KGYY (GARY REGIONAL , IN, US) observed 1145 UTC 19 April 2018
Temperature: 3.0°C (37°F)
Dewpoint: 1.0°C (34°F) [RH = 87%]
Pressure (altimeter): 30.18 inches Hg (1022.1 mb)
Winds: from the N (350 degrees) at 17 MPH (15 knots; 7.8 m/s)
Visibility: 20 miles (32 km)
Ceiling: at least 12,000 feet AGL
Clouds: few clouds at 1000 feet AGL
Weather: no significant weather observed at this time

METAR text: KGYY 191045Z 35016KT 10SM FEW010 03/01 A3013
Conditions at: KGYY (GARY REGIONAL , IN, US) observed 1045 UTC 19 April 2018
Temperature: 3.0°C (37°F)
Dewpoint: 1.0°C (34°F) [RH = 87%]
Pressure (altimeter): 30.13 inches Hg (1020.4 mb)
Winds: from the N (350 degrees) at 18 MPH (16 knots; 8.3 m/s)
Visibility: 10 or more miles (16+ km)
Ceiling: at least 12,000 feet AGL
Clouds: few clouds at 1000 feet AGL
Weather: no significant weather observed at this time

METAR text: KGYY 190945Z 35015KT 10SM FEW010 BKN060 03/01 A3009
Conditions at: KGYY (GARY REGIONAL , IN, US) observed 0945 UTC 19 April 2018
Temperature: 3.0°C (37°F)
Dewpoint: 1.0°C (34°F) [RH = 87%]
Pressure (altimeter): 30.09 inches Hg (1019.0 mb)
Winds: from the N (350 degrees) at 17 MPH (15 knots; 7.8 m/s)
Visibility: 10 or more miles (16+ km)
Ceiling: 6000 feet AGL
Clouds: few clouds at 1000 feet AGL
broken clouds at 6000 feet AGL
Weather: no significant weather observed at this time

METAR text: KGYY 190915Z AUTO 36008G15KT 10SM SCT009 BKN050 OVC110 03/02 A3007 RMK AO2 T00280015
Conditions at: KGYY (GARY REGIONAL , IN, US) observed 0915 UTC 19 April 2018
Temperature: 2.8°C (37°F)
Dewpoint: 1.5°C (35°F) [RH = 91%]
Pressure (altimeter): 30.07 inches Hg (1018.4 mb)
Winds: from the N (360 degrees) at 9 MPH (8 knots; 4.2 m/s)
gusting to 17 MPH (15 knots; 7.8 m/s)
Visibility: 10 or more miles (16+ km)
Ceiling: 5000 feet AGL
Clouds: scattered clouds at 900 feet AGL
broken clouds at 5000 feet AGL
overcast cloud deck at 11000 feet AGL
Weather: automated observation with no human augmentation;
there may or may not be significant weather present at this time

METAR text: KGYY 190855Z AUTO 01012G17KT 10SM SCT011 BKN021 OVC050 03/02 A3007 RMK AO2 T00280015
Conditions at: KGYY (GARY REGIONAL , IN, US) observed 0855 UTC 19 April 2018
Temperature: 2.8°C (37°F)
Dewpoint: 1.5°C (35°F) [RH = 91%]
Pressure (altimeter): 30.07 inches Hg (1018.4 mb)
Winds: from the N (10 degrees) at 14 MPH (12 knots; 6.2 m/s)
gusting to 20 MPH (17 knots; 8.8 m/s)
Visibility: 10 or more miles (16+ km)
Ceiling: 2100 feet AGL
Clouds: scattered clouds at 1100 feet AGL
broken clouds at 2100 feet AGL
overcast cloud deck at 5000 feet AGL
Weather: automated observation with no human augmentation;
there may or may not be significant weather present at this time

METAR text: KGYY 190835Z AUTO 01013G20KT 10SM SCT009 SCT012 OVC038 03/02 A3006 RMK AO2 T00270015
Conditions at: KGYY (GARY REGIONAL , IN, US) observed 0835 UTC 19 April 2018
Temperature: 2.7°C (37°F)
Dewpoint: 1.5°C (35°F) [RH = 92%]
Pressure (altimeter): 30.06 inches Hg (1018.0 mb)
Winds: from the N (10 degrees) at 15 MPH (13 knots; 6.8 m/s)
gusting to 23 MPH (20 knots; 10.4 m/s)
Visibility: 10 or more miles (16+ km)
Ceiling: 3800 feet AGL
Clouds: scattered clouds at 900 feet AGL
scattered clouds at 1200 feet AGL
overcast cloud deck at 3800 feet AGL
Weather: automated observation with no human augmentation;
there may or may not be significant weather present at this time

METAR text: KGYY 190815Z AUTO 01013G23KT 10SM -RA BKN009 BKN014 OVC034 03/02 A3004 RMK AO2 T00250017
Conditions at: KGYY (GARY REGIONAL , IN, US) observed 0815 UTC 19 April 2018
Temperature: 2.5°C (36°F)
Dewpoint: 1.7°C (35°F) [RH = 94%]
Pressure (altimeter): 30.04 inches Hg (1017.4 mb)
Winds: from the N (10 degrees) at 15 MPH (13 knots; 6.8 m/s)
gusting to 26 MPH (23 knots; 12.0 m/s)
Visibility: 10 or more miles (16+ km)
Ceiling: 900 feet AGL
Clouds: broken clouds at 900 feet AGL
broken clouds at 1400 feet AGL
overcast cloud deck at 3400 feet AGL
Weather: -RA  (light rain)

METAR text: KGYY 190755Z AUTO 01013G23KT 10SM -RA SCT009 BKN014 OVC022 03/02 A3002 RMK AO2 T00260018
Conditions at: KGYY (GARY REGIONAL , IN, US) observed 0755 UTC 19 April 2018
Temperature: 2.6°C (37°F)
Dewpoint: 1.8°C (35°F) [RH = 94%]
Pressure (altimeter): 30.02 inches Hg (1016.7 mb)
Winds: from the N (10 degrees) at 15 MPH (13 knots; 6.8 m/s)
gusting to 26 MPH (23 knots; 12.0 m/s)
Visibility: 10 or more miles (16+ km)
Ceiling: 1400 feet AGL
Clouds: scattered clouds at 900 feet AGL
broken clouds at 1400 feet AGL
overcast cloud deck at 2200 feet AGL
Weather: -RA  (light rain)

METAR text: KGYY 190735Z AUTO 36014G22KT 10SM BKN007 BKN011 OVC028 03/02 A3001 RMK AO2 T00260020
Conditions at: KGYY (GARY REGIONAL , IN, US) observed 0735 UTC 19 April 2018
Temperature: 2.6°C (37°F)
Dewpoint: 2.0°C (36°F) [RH = 96%]
Pressure (altimeter): 30.01 inches Hg (1016.3 mb)
Winds: from the N (360 degrees) at 16 MPH (14 knots; 7.3 m/s)
gusting to 25 MPH (22 knots; 11.4 m/s)
Visibility: 10 or more miles (16+ km)
Ceiling: 700 feet AGL
Clouds: broken clouds at 700 feet AGL
broken clouds at 1100 feet AGL
overcast cloud deck at 2800 feet AGL
Weather: automated observation with no human augmentation;
there may or may not be significant weather present at this time

METAR text: KGYY 190715Z AUTO 36013G23KT 7SM -RA BKN007 OVC010 03/02 A3000 RMK AO2 T00250021
Conditions at: KGYY (GARY REGIONAL , IN, US) observed 0715 UTC 19 April 2018
Temperature: 2.5°C (36°F)
Dewpoint: 2.1°C (36°F) [RH = 97%]
Pressure (altimeter): 30.00 inches Hg (1016.0 mb)
Winds: from the N (360 degrees) at 15 MPH (13 knots; 6.8 m/s)
gusting to 26 MPH (23 knots; 12.0 m/s)
Visibility: 7 miles (11 km)
Ceiling: 700 feet AGL
Clouds: broken clouds at 700 feet AGL
overcast cloud deck at 1000 feet AGL
Weather: -RA  (light rain)

METAR text: KGYY 190655Z AUTO 36014G22KT 5SM RA BKN007 OVC011 03/02 A2999 RMK AO2 T00250020
Conditions at: KGYY (GARY REGIONAL , IN, US) observed 0655 UTC 19 April 2018
Temperature: 2.5°C (36°F)
Dewpoint: 2.0°C (36°F) [RH = 96%]
Pressure (altimeter): 29.99 inches Hg (1015.7 mb)
Winds: from the N (360 degrees) at 16 MPH (14 knots; 7.3 m/s)
gusting to 25 MPH (22 knots; 11.4 m/s)
Visibility: 5 miles (8 km)
Ceiling: 700 feet AGL
Clouds: broken clouds at 700 feet AGL
overcast cloud deck at 1100 feet AGL
Weather: RA  (rain)

METAR text: KGYY 190635Z AUTO 36014G20KT 7SM -RA BKN007 OVC013 02/02 A2998 RMK AO2 T00230021
Conditions at: KGYY (GARY REGIONAL , IN, US) observed 0635 UTC 19 April 2018
Temperature: 2.3°C (36°F)
Dewpoint: 2.1°C (36°F) [RH = 99%]
Pressure (altimeter): 29.98 inches Hg (1015.3 mb)
Winds: from the N (360 degrees) at 16 MPH (14 knots; 7.3 m/s)
gusting to 23 MPH (20 knots; 10.4 m/s)
Visibility: 7 miles (11 km)
Ceiling: 700 feet AGL
Clouds: broken clouds at 700 feet AGL
overcast cloud deck at 1300 feet AGL
Weather: -RA  (light rain)

METAR text: KGYY 190615Z AUTO 35014G20KT 7SM -RA OVC005 02/02 A2997 RMK AO2 T00200020
Conditions at: KGYY (GARY REGIONAL , IN, US) observed 0615 UTC 19 April 2018
Temperature: 2.0°C (36°F)
Dewpoint: 2.0°C (36°F) [RH = 100%]
Pressure (altimeter): 29.97 inches Hg (1015.0 mb)
Winds: from the N (350 degrees) at 16 MPH (14 knots; 7.3 m/s)
gusting to 23 MPH (20 knots; 10.4 m/s)
Visibility: 7 miles (11 km)
Ceiling: 500 feet AGL
Clouds: overcast cloud deck at 500 feet AGL
Weather: -RA  (light rain)

METAR text: KGYY 190555Z AUTO 36012G17KT 3SM -SN OVC005 02/02 A2996 RMK AO2 P0004 60011 T00160016 10023 20010 400461009
Conditions at: KGYY (GARY REGIONAL , IN, US) observed 0555 UTC 19 April 2018
Temperature: 1.6°C (35°F)
Dewpoint: 1.6°C (35°F) [RH = 100%]
Pressure (altimeter): 29.96 inches Hg (1014.6 mb)
Winds: from the N (360 degrees) at 14 MPH (12 knots; 6.2 m/s)
gusting to 20 MPH (17 knots; 8.8 m/s)
Visibility: 3 miles (5 km)
Ceiling: 500 feet AGL
Clouds: overcast cloud deck at 500 feet AGL
Weather: -SN  (light snow)

METAR text: KGYY 190535Z AUTO 35015KT 4SM -SN OVC007 02/02 A2995 RMK AO2 P0003 T00180018
Conditions at: KGYY (GARY REGIONAL , IN, US) observed 0535 UTC 19 April 2018
Temperature: 1.8°C (35°F)
Dewpoint: 1.8°C (35°F) [RH = 100%]
Pressure (altimeter): 29.95 inches Hg (1014.3 mb)
Winds: from the N (350 degrees) at 17 MPH (15 knots; 7.8 m/s)
Visibility: 4 miles (6 km)
Ceiling: 700 feet AGL
Clouds: overcast cloud deck at 700 feet AGL
Weather: -SN  (light snow)

METAR text: KGYY 190515Z AUTO 31005KT 2SM -SN OVC005 01/01 A2994 RMK AO2 P0001 T00120012
Conditions at: KGYY (GARY REGIONAL , IN, US) observed 0515 UTC 19 April 2018
Temperature: 1.2°C (34°F)
Dewpoint: 1.2°C (34°F) [RH = 100%]
Pressure (altimeter): 29.94 inches Hg (1014.0 mb)
Winds: from the NW (310 degrees) at 6 MPH (5 knots; 2.6 m/s)
Visibility: 2.00 miles (3.22 km)
Ceiling: 500 feet AGL
Clouds: overcast cloud deck at 500 feet AGL
Weather: -SN  (light snow)

METAR text: KGYY 190455Z AUTO 30008KT 1 1/4SM -SN OVC005 01/01 A2993 RMK AO2 P0004 T00100010
Conditions at: KGYY (GARY REGIONAL , IN, US) observed 0455 UTC 19 April 2018
Temperature: 1.0°C (34°F)
Dewpoint: 1.0°C (34°F) [RH = 100%]
Pressure (altimeter): 29.93 inches Hg (1013.6 mb)
Winds: from the WNW (300 degrees) at 9 MPH (8 knots; 4.2 m/s)
Visibility: 1.25 miles (2.01 km)
Ceiling: 500 feet AGL
Clouds: overcast cloud deck at 500 feet AGL
Weather: -SN  (light snow)

METAR text: KGYY 190435Z AUTO 30009KT 1 1/2SM -SN OVC005 01/01 A2992 RMK AO2 P0001 T00110010
Conditions at: KGYY (GARY REGIONAL , IN, US) observed 0435 UTC 19 April 2018
Temperature: 1.1°C (34°F)
Dewpoint: 1.0°C (34°F) [RH = 99%]
Pressure (altimeter): 29.92 inches Hg (1013.3 mb)
Winds: from the WNW (300 degrees) at 10 MPH (9 knots; 4.7 m/s)
Visibility: 1.50 miles (2.41 km)
Ceiling: 500 feet AGL
Clouds: overcast cloud deck at 500 feet AGL
Weather: -SN  (light snow)

METAR text: KGYY 190415Z AUTO 30008KT 2SM -SN OVC005 01/01 A2992 RMK AO2 T00130011
Conditions at: KGYY (GARY REGIONAL , IN, US) observed 0415 UTC 19 April 2018
Temperature: 1.3°C (34°F)
Dewpoint: 1.1°C (34°F) [RH = 99%]
Pressure (altimeter): 29.92 inches Hg (1013.3 mb)
Winds: from the WNW (300 degrees) at 9 MPH (8 knots; 4.2 m/s)
Visibility: 2.00 miles (3.22 km)
Ceiling: 500 feet AGL
Clouds: overcast cloud deck at 500 feet AGL
Weather: -SN  (light snow)

METAR text: KGYY 190355Z AUTO 30009KT 3SM UP BKN007 OVC010 02/01 A2991 RMK AO2 T00150013
Conditions at: KGYY (GARY REGIONAL , IN, US) observed 0355 UTC 19 April 2018
Temperature: 1.5°C (35°F)
Dewpoint: 1.3°C (34°F) [RH = 99%]
Pressure (altimeter): 29.91 inches Hg (1013.0 mb)
Winds: from the WNW (300 degrees) at 10 MPH (9 knots; 4.7 m/s)
Visibility: 3 miles (5 km)
Ceiling: 700 feet AGL
Clouds: broken clouds at 700 feet AGL
overcast cloud deck at 1000 feet AGL
Weather: UP  (unknown precipitation)

METAR text: KGYY 190335Z AUTO 29009KT 2 1/2SM UP OVC007 01/01 A2990 RMK AO2 T00130013
Conditions at: KGYY (GARY REGIONAL , IN, US) observed 0335 UTC 19 April 2018
Temperature: 1.3°C (34°F)
Dewpoint: 1.3°C (34°F) [RH = 100%]
Pressure (altimeter): 29.90 inches Hg (1012.6 mb)
Winds: from the WNW (290 degrees) at 10 MPH (9 knots; 4.7 m/s)
Visibility: 2.50 miles (4.02 km)
Ceiling: 700 feet AGL
Clouds: overcast cloud deck at 700 feet AGL
Weather: UP  (unknown precipitation)

METAR text: KGYY 190315Z AUTO 29009KT 2 1/2SM -SN OVC005 01/01 A2990 RMK AO2 T00130013
Conditions at: KGYY (GARY REGIONAL , IN, US) observed 0315 UTC 19 April 2018
Temperature: 1.3°C (34°F)
Dewpoint: 1.3°C (34°F) [RH = 100%]
Pressure (altimeter): 29.90 inches Hg (1012.6 mb)
Winds: from the WNW (290 degrees) at 10 MPH (9 knots; 4.7 m/s)
Visibility: 2.50 miles (4.02 km)
Ceiling: 500 feet AGL
Clouds: overcast cloud deck at 500 feet AGL
Weather: -SN  (light snow)

METAR text: KGYY 190245Z 28010KT 2SM -SN OVC005 01/01 A2990 RMK RAE30 SNB31
Conditions at: KGYY (GARY REGIONAL , IN, US) observed 0245 UTC 19 April 2018
Temperature: 1.0°C (34°F)
Dewpoint: 1.0°C (34°F) [RH = 100%]
Pressure (altimeter): 29.90 inches Hg (1012.6 mb)
Winds: from the W (280 degrees) at 12 MPH (10 knots; 5.2 m/s)
Visibility: 2.00 miles (3.22 km)
Ceiling: 500 feet AGL
Clouds: overcast cloud deck at 500 feet AGL
Weather: -SN  (light snow)

METAR text: KGYY 190145Z 35008KT 2SM -RA OVC006 02/02 A2986
Conditions at: KGYY (GARY REGIONAL , IN, US) observed 0145 UTC 19 April 2018
Temperature: 2.0°C (36°F)
Dewpoint: 2.0°C (36°F) [RH = 100%]
Pressure (altimeter): 29.86 inches Hg (1011.3 mb)
Winds: from the N (350 degrees) at 9 MPH (8 knots; 4.2 m/s)
Visibility: 2.00 miles (3.22 km)
Ceiling: 600 feet AGL
Clouds: overcast cloud deck at 600 feet AGL
Weather: -RA  (light rain)

METAR text: KGYY 190045Z 35008KT 2SM -RA OVC006 02/02 A2986
Conditions at: KGYY (GARY REGIONAL , IN, US) observed 0045 UTC 19 April 2018
Temperature: 2.0°C (36°F)
Dewpoint: 2.0°C (36°F) [RH = 100%]
Pressure (altimeter): 29.86 inches Hg (1011.3 mb)
Winds: from the N (350 degrees) at 9 MPH (8 knots; 4.2 m/s)
Visibility: 2.00 miles (3.22 km)
Ceiling: 600 feet AGL
Clouds: overcast cloud deck at 600 feet AGL
Weather: -RA  (light rain)

METAR text: KGYY 182345Z 36009KT 2SM -RA OVC006 02/02 A2984
Conditions at: KGYY (GARY REGIONAL , IN, US) observed 2345 UTC 18 April 2018
Temperature: 2.0°C (36°F)
Dewpoint: 2.0°C (36°F) [RH = 100%]
Pressure (altimeter): 29.84 inches Hg (1010.6 mb)
Winds: from the N (360 degrees) at 10 MPH (9 knots; 4.7 m/s)
Visibility: 2.00 miles (3.22 km)
Ceiling: 600 feet AGL
Clouds: overcast cloud deck at 600 feet AGL
Weather: -RA  (light rain)

METAR text: KGYY 182245Z 01012KT 3SM -RA OVC008 02/01 A2982
Conditions at: KGYY (GARY REGIONAL , IN, US) observed 2245 UTC 18 April 2018
Temperature: 2.0°C (36°F)
Dewpoint: 1.0°C (34°F) [RH = 93%]
Pressure (altimeter): 29.82 inches Hg (1009.9 mb)
Winds: from the N (10 degrees) at 14 MPH (12 knots; 6.2 m/s)
Visibility: 3 miles (5 km)
Ceiling: 800 feet AGL
Clouds: overcast cloud deck at 800 feet AGL
Weather: -RA  (light rain)

METAR text: KGYY 182210Z 01008G18KT 2SM -RA OVC008 02/00 A2981 RMK RAB06
Conditions at: KGYY (GARY REGIONAL , IN, US) observed 2210 UTC 18 April 2018
Temperature: 2.0°C (36°F)
Dewpoint: 0.0°C (32°F) [RH = 87%]
Pressure (altimeter): 29.81 inches Hg (1009.6 mb)
Winds: from the N (10 degrees) at 9 MPH (8 knots; 4.2 m/s)
gusting to 21 MPH (18 knots; 9.4 m/s)
Visibility: 2.00 miles (3.22 km)
Ceiling: 800 feet AGL
Clouds: overcast cloud deck at 800 feet AGL
Weather: -RA  (light rain)

METAR text: KGYY 182145Z 36010G20KT 7SM OVC020 03/00 A2980
Conditions at: KGYY (GARY REGIONAL , IN, US) observed 2145 UTC 18 April 2018
Temperature: 3.0°C (37°F)
Dewpoint: 0.0°C (32°F) [RH = 81%]
Pressure (altimeter): 29.80 inches Hg (1009.2 mb)
Winds: from the N (360 degrees) at 12 MPH (10 knots; 5.2 m/s)
gusting to 23 MPH (20 knots; 10.4 m/s)
Visibility: 7 miles (11 km)
Ceiling: 2000 feet AGL
Clouds: overcast cloud deck at 2000 feet AGL
Weather: no significant weather observed at this time

METAR text: KGYY 182045Z 03014KT 10SM OVC031 03/M01 A2977
Conditions at: KGYY (GARY REGIONAL , IN, US) observed 2045 UTC 18 April 2018
Temperature: 3.0°C (37°F)
Dewpoint: -1.0°C (30°F) [RH = 75%]
Pressure (altimeter): 29.77 inches Hg (1008.2 mb)
Winds: from the NNE (30 degrees) at 16 MPH (14 knots; 7.3 m/s)
Visibility: 10 or more miles (16+ km)
Ceiling: 3100 feet AGL
Clouds: overcast cloud deck at 3100 feet AGL
Weather: no significant weather observed at this time

METAR text: KGYY 181945Z 02015KT 10SM OVC040 03/M01 A2978
Conditions at: KGYY (GARY REGIONAL , IN, US) observed 1945 UTC 18 April 2018
Temperature: 3.0°C (37°F)
Dewpoint: -1.0°C (30°F) [RH = 75%]
Pressure (altimeter): 29.78 inches Hg (1008.5 mb)
Winds: from the NNE (20 degrees) at 17 MPH (15 knots; 7.8 m/s)
Visibility: 10 or more miles (16+ km)
Ceiling: 4000 feet AGL
Clouds: overcast cloud deck at 4000 feet AGL
Weather: no significant weather observed at this time

METAR text: KGYY 181845Z 04012G25KT 10SM OVC040 03/M02 A2975 RMK RAE30
Conditions at: KGYY (GARY REGIONAL , IN, US) observed 1845 UTC 18 April 2018
Temperature: 3.0°C (37°F)
Dewpoint: -2.0°C (28°F) [RH = 70%]
Pressure (altimeter): 29.75 inches Hg (1007.5 mb)
Winds: from the NE (40 degrees) at 14 MPH (12 knots; 6.2 m/s)
gusting to 29 MPH (25 knots; 13.0 m/s)
Visibility: 10 or more miles (16+ km)
Ceiling: 4000 feet AGL
Clouds: overcast cloud deck at 4000 feet AGL
Weather: no significant weather observed at this time

METAR text: KGYY 181745Z 07014G24KT 10SM -RA OVC044 03/M02 A2975 RMK RAB40
Conditions at: KGYY (GARY REGIONAL , IN, US) observed 1745 UTC 18 April 2018
Temperature: 3.0°C (37°F)
Dewpoint: -2.0°C (28°F) [RH = 70%]
Pressure (altimeter): 29.75 inches Hg (1007.5 mb)
Winds: from the ENE (70 degrees) at 16 MPH (14 knots; 7.3 m/s)
gusting to 28 MPH (24 knots; 12.5 m/s)
Visibility: 10 or more miles (16+ km)
Ceiling: 4400 feet AGL
Clouds: overcast cloud deck at 4400 feet AGL
Weather: -RA  (light rain)